createdAt,value
2022-12-25T00:00:26.707Z,6.18
2022-12-25T00:05:32.160Z,4.07
2022-12-25T00:10:43.000Z,3.70
2022-12-25T00:15:47.686Z,3.83
2022-12-25T00:20:58.623Z,3.27
2022-12-25T00:26:04.980Z,2.90
2022-12-25T00:31:10.046Z,2.20
2022-12-25T00:36:17.526Z,1.93
2022-12-25T00:41:43.237Z,1.60
2022-12-25T00:46:45.897Z,3.27
2022-12-25T00:51:49.993Z,4.30
2022-12-25T00:56:52.481Z,4.18
2022-12-25T01:01:55.171Z,3.33
2022-12-25T01:06:57.711Z,1.73
2022-12-25T01:12:00.223Z,1.40
2022-12-25T01:17:02.747Z,1.10
2022-12-25T01:22:05.324Z,1.40
2022-12-25T01:27:07.817Z,1.20
2022-12-25T01:32:10.343Z,1.65
2022-12-25T01:37:12.927Z,2.10
2022-12-25T01:42:21.714Z,1.38
2022-12-25T01:47:24.204Z,1.42
2022-12-25T01:52:26.709Z,1.10
2022-12-25T01:57:34.120Z,1.80
2022-12-25T02:02:37.851Z,1.43
2022-12-25T02:07:41.561Z,1.42
2022-12-25T02:12:45.746Z,1.38
2022-12-25T02:17:59.949Z,1.30
2022-12-25T02:23:14.357Z,1.52
2022-12-25T02:28:29.025Z,1.27
2022-12-25T02:34:05.555Z,1.52
2022-12-25T02:39:40.630Z,1.75
2022-12-25T02:45:04.192Z,2.07
2022-12-25T02:50:26.992Z,1.70
2022-12-25T02:55:54.472Z,2.00
2022-12-25T03:01:25.580Z,1.88
2022-12-25T03:06:44.785Z,1.70
2022-12-25T03:11:52.805Z,2.00
2022-12-25T03:16:58.233Z,2.15
2022-12-25T03:22:19.828Z,2.20
2022-12-25T03:27:23.366Z,2.42
2022-12-25T03:33:18.040Z,2.00
2022-12-25T03:39:14.807Z,2.60
2022-12-25T03:44:54.668Z,2.40
2022-12-25T03:50:48.992Z,2.63
2022-12-25T03:56:11.987Z,2.28
2022-12-25T04:01:32.913Z,2.90
2022-12-25T04:06:54.082Z,3.17
2022-12-25T04:12:19.377Z,2.88
2022-12-25T04:17:40.310Z,2.87
2022-12-25T04:23:01.277Z,3.88
2022-12-25T04:28:22.618Z,4.10
2022-12-25T04:33:43.472Z,3.20
2022-12-25T04:38:46.008Z,3.05
2022-12-25T04:43:48.566Z,2.53
2022-12-25T04:48:51.146Z,2.45
2022-12-25T04:53:53.946Z,2.47
2022-12-25T04:58:56.518Z,2.70
2022-12-25T05:03:59.142Z,3.20
2022-12-25T05:09:01.689Z,2.77
2022-12-25T05:14:07.157Z,3.78
2022-12-25T05:19:12.671Z,3.60
2022-12-25T05:24:15.203Z,3.77
2022-12-25T05:29:17.674Z,4.78
2022-12-25T05:34:20.184Z,3.60
2022-12-25T05:39:23.314Z,3.90
2022-12-25T05:44:25.829Z,4.03
2022-12-25T05:49:28.300Z,4.03
2022-12-25T05:54:30.841Z,4.13
2022-12-25T05:59:34.197Z,5.63
2022-12-25T06:04:36.673Z,5.10
2022-12-25T06:09:39.396Z,4.90
2022-12-25T06:14:43.328Z,4.30
2022-12-25T06:19:45.863Z,5.65
2022-12-25T06:24:48.466Z,4.53
2022-12-25T06:29:51.026Z,11.20
2022-12-25T06:34:53.487Z,5.43
2022-12-25T06:39:55.961Z,6.87
2022-12-25T06:44:58.476Z,7.40
2022-12-25T06:50:00.965Z,7.07
2022-12-25T06:55:03.627Z,6.68
2022-12-25T07:00:09.250Z,7.57
2022-12-25T07:21:11.746Z,6.50
2022-12-25T07:26:15.024Z,5.78
2022-12-25T07:31:18.508Z,5.25
2022-12-25T07:36:21.597Z,5.53
2022-12-25T07:41:24.140Z,6.85
2022-12-25T07:46:27.177Z,6.00
2022-12-25T07:51:30.425Z,6.40
2022-12-25T07:56:33.516Z,6.25
2022-12-25T08:01:36.163Z,7.60
2022-12-25T08:06:39.085Z,7.85
2022-12-25T08:11:47.088Z,8.10
2022-12-25T08:16:50.750Z,7.80
2022-12-25T08:21:53.344Z,5.13
2022-12-25T08:26:56.485Z,7.80
2022-12-25T08:32:00.083Z,5.15
2022-12-25T08:37:02.569Z,6.63
2022-12-25T08:42:05.263Z,5.93
2022-12-25T08:47:07.804Z,6.85
2022-12-25T08:52:10.420Z,6.10
2022-12-25T08:57:12.925Z,5.85
2022-12-25T09:02:17.682Z,6.17
2022-12-25T09:07:20.433Z,6.10
2022-12-25T09:12:22.939Z,7.03
2022-12-25T09:17:25.587Z,6.53
2022-12-25T09:22:28.149Z,6.43
2022-12-25T09:27:30.671Z,8.07
2022-12-25T09:32:33.221Z,7.68
2022-12-25T09:37:35.823Z,8.07
2022-12-25T09:42:38.507Z,7.10
2022-12-25T09:47:43.719Z,8.13
2022-12-25T09:52:55.349Z,7.80
2022-12-25T09:58:01.178Z,8.07
2022-12-25T10:03:22.006Z,8.07
2022-12-25T10:09:05.344Z,7.63
2022-12-25T10:14:34.260Z,7.35
2022-12-25T10:19:54.940Z,7.37
2022-12-25T10:25:00.034Z,6.85
2022-12-25T10:30:20.895Z,7.57
2022-12-25T10:35:28.962Z,7.93
2022-12-25T10:40:53.838Z,9.07
2022-12-25T10:45:56.452Z,6.33
2022-12-25T10:51:00.790Z,7.93
2022-12-25T10:56:06.160Z,6.80
2022-12-25T11:01:09.107Z,9.53
2022-12-25T11:06:27.326Z,9.43
2022-12-25T11:11:30.843Z,11.10
2022-12-25T11:16:41.529Z,11.50
2022-12-25T11:21:54.106Z,13.23
2022-12-25T11:26:59.804Z,13.17
2022-12-25T11:32:04.368Z,13.25
2022-12-25T11:37:24.109Z,13.43
2022-12-25T11:42:37.942Z,12.32
2022-12-25T11:47:54.510Z,11.73
2022-12-25T11:53:01.124Z,15.07
2022-12-25T11:58:14.363Z,17.58
2022-12-25T12:03:24.429Z,15.60
2022-12-25T12:08:27.135Z,14.10
2022-12-25T12:13:32.403Z,16.17
2022-12-25T12:18:37.001Z,14.33
2022-12-25T12:24:03.432Z,16.60
2022-12-25T12:29:09.034Z,12.70
2022-12-25T12:34:45.661Z,11.63
2022-12-25T12:39:53.061Z,10.48
2022-12-25T12:44:58.363Z,8.73
2022-12-25T12:50:02.211Z,10.52
2022-12-25T12:55:13.398Z,10.40
2022-12-25T13:00:21.399Z,9.43
2022-12-25T13:05:48.809Z,8.35
2022-12-25T13:11:03.784Z,9.97
2022-12-25T13:16:11.019Z,8.25
2022-12-25T13:21:19.856Z,7.10
2022-12-25T13:26:22.373Z,7.88
2022-12-25T13:31:27.812Z,7.85
2022-12-25T13:36:37.207Z,7.10
2022-12-25T13:42:10.212Z,8.30
2022-12-25T13:47:30.058Z,7.60
2022-12-25T13:52:38.345Z,8.75
2022-12-25T13:57:59.412Z,8.38
2022-12-25T14:03:03.254Z,9.93
2022-12-25T14:08:19.650Z,8.88
2022-12-25T14:13:27.367Z,7.23
2022-12-25T14:18:31.039Z,8.50
2022-12-25T14:23:47.995Z,10.07
2022-12-25T14:29:02.338Z,9.20
2022-12-25T14:34:10.657Z,10.38
2022-12-25T14:39:37.329Z,8.40
2022-12-25T14:44:41.089Z,7.63
2022-12-25T14:49:44.490Z,6.85
2022-12-25T14:54:51.365Z,7.63
2022-12-25T14:59:59.870Z,9.57
2022-12-25T15:05:02.531Z,7.53
2022-12-25T15:10:57.616Z,6.70
2022-12-25T15:15:35.756Z,7.35
2022-12-25T15:20:41.949Z,9.93
2022-12-25T15:25:44.523Z,14.20
2022-12-25T15:30:47.789Z,13.13
2022-12-25T15:35:53.335Z,8.10
2022-12-25T15:40:55.949Z,6.18
2022-12-25T15:45:58.642Z,7.63
2022-12-25T15:51:01.148Z,7.97
2022-12-25T15:56:04.526Z,8.77
2022-12-25T16:01:07.159Z,8.98
2022-12-25T16:06:14.780Z,9.52
2022-12-25T16:11:17.356Z,8.23
2022-12-25T16:16:19.897Z,8.70
2022-12-25T16:21:23.332Z,9.17
2022-12-25T16:26:27.936Z,7.18
2022-12-25T16:31:30.614Z,7.70
2022-12-25T16:36:34.224Z,9.00
2022-12-25T16:41:37.319Z,10.02
2022-12-25T16:46:40.698Z,11.07
2022-12-25T16:51:43.345Z,8.98
2022-12-25T16:56:45.872Z,8.32
2022-12-25T17:01:48.749Z,7.73
2022-12-25T17:06:52.944Z,8.05
2022-12-25T17:11:55.636Z,7.37
2022-12-25T17:16:58.217Z,6.13
2022-12-25T17:22:00.892Z,5.47
2022-12-25T17:27:04.201Z,5.57
2022-12-25T17:32:10.525Z,6.10
2022-12-25T17:37:13.011Z,4.90
2022-12-25T17:42:15.595Z,4.72
2022-12-25T17:47:19.214Z,4.35
2022-12-25T17:52:23.741Z,4.70
2022-12-25T17:57:26.342Z,4.05
2022-12-25T18:02:30.162Z,4.60
2022-12-25T18:07:33.056Z,4.60
2022-12-25T18:12:35.744Z,5.07
2022-12-25T18:17:38.823Z,4.27
2022-12-25T18:22:42.846Z,4.60
2022-12-25T18:27:48.433Z,5.93
2022-12-25T18:32:51.008Z,6.25
2022-12-25T18:37:53.532Z,8.48
2022-12-25T18:43:02.721Z,6.90
2022-12-25T18:48:07.722Z,7.70
2022-12-25T18:53:10.308Z,6.37
2022-12-25T18:58:12.848Z,5.18
2022-12-25T19:03:15.421Z,4.60
2022-12-25T19:08:17.917Z,4.87
2022-12-25T19:13:20.399Z,4.97
2022-12-25T19:18:23.013Z,5.00
2022-12-25T19:23:25.557Z,5.93
2022-12-25T19:28:28.037Z,5.95
2022-12-25T19:33:32.487Z,5.43
2022-12-25T19:38:35.143Z,5.40
2022-12-25T19:43:39.411Z,5.57
2022-12-25T19:48:42.573Z,5.03
2022-12-25T19:53:45.750Z,4.20
2022-12-25T19:58:49.445Z,3.83
2022-12-25T20:03:52.624Z,4.65
2022-12-25T20:09:01.864Z,4.27
2022-12-25T20:14:06.549Z,4.32
2022-12-25T20:19:11.726Z,3.40
2022-12-25T20:24:14.296Z,3.10
2022-12-25T20:29:16.855Z,3.15
2022-12-25T20:34:19.398Z,3.17
2022-12-25T20:39:21.937Z,3.90
2022-12-25T20:44:24.458Z,3.10
2022-12-25T20:49:32.547Z,2.80
2022-12-25T20:54:35.427Z,3.67
2022-12-25T20:59:38.081Z,3.43
2022-12-25T21:04:40.602Z,3.08
2022-12-25T21:09:46.692Z,3.15
2022-12-25T21:14:49.140Z,2.33
2022-12-25T21:19:52.509Z,2.10
2022-12-25T21:24:55.099Z,1.97
2022-12-25T21:29:59.316Z,2.30
2022-12-25T21:35:18.033Z,2.25
2022-12-25T21:40:20.475Z,2.83
2022-12-25T21:45:23.737Z,4.18
2022-12-25T21:50:44.893Z,5.90
2022-12-25T21:56:06.062Z,8.90
2022-12-25T22:01:10.988Z,9.75
2022-12-25T22:06:31.839Z,6.60
2022-12-25T22:11:55.965Z,5.82
2022-12-25T22:17:16.745Z,5.80
2022-12-25T22:22:22.361Z,6.70
2022-12-25T22:27:25.629Z,5.28
2022-12-25T22:32:29.064Z,5.77
2022-12-25T22:37:31.985Z,3.78
2022-12-25T22:42:34.568Z,3.40
2022-12-25T22:47:37.327Z,3.25
2022-12-25T22:52:39.837Z,3.05
2022-12-25T22:57:42.337Z,3.60
2022-12-25T23:02:46.120Z,3.38
2022-12-25T23:07:51.745Z,4.90
2022-12-25T23:13:12.658Z,4.28
2022-12-25T23:18:36.622Z,5.55
2022-12-25T23:23:57.575Z,6.53
2022-12-25T23:29:18.708Z,5.78
2022-12-25T23:34:21.984Z,6.10
2022-12-25T23:39:24.728Z,6.32
2022-12-25T23:44:30.207Z,4.50
2022-12-25T23:49:32.720Z,5.27
2022-12-25T23:54:35.423Z,5.10
2022-12-25T23:59:37.928Z,4.00
